Time;durP1;ratioP1;P1;durP2;ratioP2;P2;SDS_P1;SDS_P2;PMS_P1;PMS_P2;Temp;Humidity;BMP_temperature;BMP_pressure;BME280_temperature;BME280_humidity;BME280_pressure;Samples;Min_cycle;Max_cycle;Signal;HPM_P1;HPM_P2
2023/03/06 00:01:17;;;;;;;3.05;1.25;;;;;;;;;;5240648;28;20024;-75
2023/03/06 00:03:48;;;;;;;3.17;1.63;;;;;;;;;;5240084;28;20514;-74
2023/03/06 00:06:20;;;;;;;4.00;1.60;;;;;;;;;;5241121;28;20013;-75
2023/03/06 00:08:51;;;;;;;3.33;1.67;;;;;;;;;;5244627;28;20013;-74
2023/03/06 00:11:23;;;;;;;4.60;1.50;;;;;;;;;;5244882;28;20384;-75
2023/03/06 00:13:54;;;;;;;2.30;1.78;;;;;;;;;;5243875;28;20044;-75
2023/03/06 00:16:25;;;;;;;2.45;1.73;;;;;;;;;;5244461;28;20021;-75
2023/03/06 00:18:56;;;;;;;2.10;1.27;;;;;;;;;;5244829;28;20047;-74
2023/03/06 00:21:27;;;;;;;2.53;1.58;;;;;;;;;;5243398;28;20036;-75
2023/03/06 00:23:58;;;;;;;3.70;1.55;;;;;;;;;;5244489;28;20016;-74
2023/03/06 00:26:30;;;;;;;2.75;1.55;;;;;;;;;;5244110;28;20504;-74
2023/03/06 00:29:01;;;;;;;2.95;1.90;;;;;;;;;;5243448;28;20017;-74
2023/03/06 00:31:32;;;;;;;4.70;1.88;;;;;;;;;;5243785;28;20448;-75
2023/03/06 00:34:04;;;;;;;4.35;2.20;;;;;;;;;;5243936;28;20018;-74
2023/03/06 00:36:35;;;;;;;3.10;2.25;;;;;;;;;;5243750;28;20052;-75
2023/03/06 00:39:06;;;;;;;3.20;2.30;;;;;;;;;;5244528;28;20463;-74
2023/03/06 00:41:38;;;;;;;5.05;2.08;;;;;;;;;;5242907;28;20025;-74
2023/03/06 00:44:09;;;;;;;3.10;2.20;;;;;;;;;;5244332;28;20087;-74
2023/03/06 00:46:40;;;;;;;3.55;2.40;;;;;;;;;;5243713;28;20025;-74
2023/03/06 00:49:11;;;;;;;4.60;2.83;;;;;;;;;;5243463;28;20025;-74
2023/03/06 00:51:42;;;;;;;3.10;2.25;;;;;;;;;;5243415;28;20129;-75
2023/03/06 00:54:13;;;;;;;3.55;2.42;;;;;;;;;;5243938;28;20013;-74
2023/03/06 00:56:45;;;;;;;3.67;2.30;;;;;;;;;;5242547;28;20025;-74
2023/03/06 00:59:16;;;;;;;4.20;2.40;;;;;;;;;;5244015;28;20041;-74
2023/03/06 01:01:47;;;;;;;3.60;2.60;;;;;;;;;;5243344;28;20021;-74
2023/03/06 01:04:18;;;;;;;3.05;2.42;;;;;;;;;;5243163;28;20028;-74
2023/03/06 01:06:49;;;;;;;4.28;3.03;;;;;;;;;;5243292;28;20115;-74
2023/03/06 01:09:21;;;;;;;4.03;2.70;;;;;;;;;;5242502;28;20036;-74
2023/03/06 01:11:52;;;;;;;5.65;3.13;;;;;;;;;;5243594;28;20029;-75
2023/03/06 01:14:23;;;;;;;4.03;3.33;;;;;;;;;;5243398;28;20075;-74
2023/03/06 01:16:54;;;;;;;3.90;3.47;;;;;;;;;;5242257;28;20032;-74
2023/03/06 01:19:25;;;;;;;4.70;3.45;;;;;;;;;;5242084;28;20152;-74
2023/03/06 01:21:56;;;;;;;3.78;2.83;;;;;;;;;;5243529;28;20112;-74
2023/03/06 01:24:28;;;;;;;4.30;3.45;;;;;;;;;;5242186;28;20018;-74
2023/03/06 01:26:59;;;;;;;4.38;3.38;;;;;;;;;;5243357;28;20079;-74
2023/03/06 01:29:30;;;;;;;4.88;3.30;;;;;;;;;;5242516;28;20084;-74
2023/03/06 01:32:01;;;;;;;4.40;3.95;;;;;;;;;;5242712;28;20021;-74
2023/03/06 01:34:32;;;;;;;5.20;3.10;;;;;;;;;;5242840;28;20052;-74
2023/03/06 01:37:04;;;;;;;5.57;3.55;;;;;;;;;;5242571;28;20014;-74
2023/03/06 01:39:35;;;;;;;4.32;3.53;;;;;;;;;;5242564;28;20018;-74
2023/03/06 01:42:06;;;;;;;4.55;3.38;;;;;;;;;;5243010;28;20440;-74
2023/03/06 01:44:56;;;;;;;4.45;3.30;;;;;;;;;;5241807;28;20028;-75
2023/03/06 01:47:27;;;;;;;4.95;3.33;;;;;;;;;;5242541;28;20044;-75
2023/03/06 01:50:00;;;;;;;5.53;4.10;;;;;;;;;;5242926;28;20026;-74
2023/03/06 01:52:38;;;;;;;4.90;3.87;;;;;;;;;;5241323;28;20076;-75
2023/03/06 01:55:14;;;;;;;5.53;4.27;;;;;;;;;;5242640;28;20028;-75
2023/03/06 01:57:47;;;;;;;6.35;4.20;;;;;;;;;;5242301;28;20017;-75
2023/03/06 02:00:20;;;;;;;4.30;3.63;;;;;;;;;;5242074;28;20072;-75
2023/03/06 02:02:57;;;;;;;5.67;4.33;;;;;;;;;;5242291;28;20017;-75
2023/03/06 02:05:28;;;;;;;8.82;4.88;;;;;;;;;;5241273;28;20061;-75
2023/03/06 02:08:01;;;;;;;5.83;4.53;;;;;;;;;;5242643;28;20494;-75
2023/03/06 02:10:32;;;;;;;5.33;4.73;;;;;;;;;;5241893;28;20034;-74
2023/03/06 02:13:03;;;;;;;5.43;3.90;;;;;;;;;;5241974;28;20376;-75
2023/03/06 02:15:34;;;;;;;5.50;4.27;;;;;;;;;;5241835;28;20056;-75
2023/03/06 02:18:06;;;;;;;6.20;4.17;;;;;;;;;;5242531;28;20021;-75
2023/03/06 02:20:45;;;;;;;5.50;4.10;;;;;;;;;;5240860;28;20033;-74
2023/03/06 02:23:30;;;;;;;5.40;4.50;;;;;;;;;;5242402;28;20053;-75
2023/03/06 02:26:02;;;;;;;6.77;4.70;;;;;;;;;;5242258;28;20037;-74
2023/03/06 02:28:33;;;;;;;5.37;4.03;;;;;;;;;;5240769;28;20021;-74
2023/03/06 02:31:05;;;;;;;5.30;4.27;;;;;;;;;;5242236;28;20021;-74
2023/03/06 02:33:36;;;;;;;6.00;4.10;;;;;;;;;;5240834;28;20394;-74
2023/03/06 02:36:09;;;;;;;7.13;4.10;;;;;;;;;;5242039;28;20033;-74
2023/03/06 02:38:46;;;;;;;5.43;3.90;;;;;;;;;;5240059;28;20044;-74
2023/03/06 02:41:17;;;;;;;4.63;3.67;;;;;;;;;;5241352;28;20062;-74
2023/03/06 02:43:49;;;;;;;6.23;3.43;;;;;;;;;;5240097;28;20436;-74
2023/03/06 02:46:20;;;;;;;6.37;4.47;;;;;;;;;;5241538;28;20017;-74
2023/03/06 02:48:51;;;;;;;7.30;4.17;;;;;;;;;;5240605;28;20495;-74
2023/03/06 02:51:22;;;;;;;5.80;4.13;;;;;;;;;;5241383;28;20060;-74
2023/03/06 02:53:54;;;;;;;4.60;3.23;;;;;;;;;;5241474;28;20048;-74
2023/03/06 02:56:25;;;;;;;4.90;3.90;;;;;;;;;;5240411;28;20021;-74
2023/03/06 02:58:56;;;;;;;5.97;4.80;;;;;;;;;;5241541;28;20099;-74
2023/03/06 03:01:27;;;;;;;6.70;4.67;;;;;;;;;;5240074;28;20021;-74
2023/03/06 03:03:58;;;;;;;4.87;3.93;;;;;;;;;;5241734;28;20017;-74
2023/03/06 03:06:29;;;;;;;4.83;3.47;;;;;;;;;;5241177;28;20040;-74
2023/03/06 03:09:01;;;;;;;5.40;4.17;;;;;;;;;;5240532;28;20017;-74
2023/03/06 03:11:32;;;;;;;6.10;4.43;;;;;;;;;;5240679;28;20551;-74
2023/03/06 03:14:03;;;;;;;7.70;4.83;;;;;;;;;;5241232;28;20484;-74
2023/03/06 03:16:34;;;;;;;7.53;5.23;;;;;;;;;;5240070;28;20104;-74
2023/03/06 03:19:05;;;;;;;7.70;4.73;;;;;;;;;;5241389;28;20032;-75
2023/03/06 03:21:38;;;;;;;7.07;4.80;;;;;;;;;;5240640;28;20025;-74
2023/03/06 03:24:09;;;;;;;5.70;4.67;;;;;;;;;;5240503;28;20020;-74
2023/03/06 03:26:41;;;;;;;7.47;5.60;;;;;;;;;;5240707;28;20013;-74
2023/03/06 03:29:12;;;;;;;6.53;4.97;;;;;;;;;;5241017;28;20094;-74
2023/03/06 03:31:43;;;;;;;6.50;5.20;;;;;;;;;;5239715;28;20029;-74
2023/03/06 03:34:14;;;;;;;8.33;5.57;;;;;;;;;;5241009;28;20024;-74
2023/03/06 03:36:46;;;;;;;7.83;6.03;;;;;;;;;;5239578;28;20024;-74
2023/03/06 03:39:17;;;;;;;8.07;5.93;;;;;;;;;;5241028;28;20104;-74
2023/03/06 03:41:48;;;;;;;8.23;6.90;;;;;;;;;;5239904;28;20024;-74
2023/03/06 03:44:20;;;;;;;7.37;5.97;;;;;;;;;;5239824;28;20116;-74
2023/03/06 03:46:51;;;;;;;7.67;6.33;;;;;;;;;;5240542;28;20029;-75
2023/03/06 03:49:22;;;;;;;7.93;6.03;;;;;;;;;;5240323;28;20033;-74
2023/03/06 03:51:53;;;;;;;9.80;7.07;;;;;;;;;;5239549;28;20068;-75
2023/03/06 03:54:24;;;;;;;10.27;8.03;;;;;;;;;;5240413;28;20127;-75
2023/03/06 03:56:56;;;;;;;10.43;7.67;;;;;;;;;;5240629;28;20117;-74
2023/03/06 03:59:27;;;;;;;15.93;8.17;;;;;;;;;;5239126;28;20021;-74
2023/03/06 04:01:58;;;;;;;9.70;8.13;;;;;;;;;;5240555;28;20083;-74
2023/03/06 04:04:29;;;;;;;12.03;8.13;;;;;;;;;;5240062;28;20432;-74
2023/03/06 04:07:00;;;;;;;10.40;8.63;;;;;;;;;;5239681;28;20021;-74
2023/03/06 04:09:32;;;;;;;11.83;9.07;;;;;;;;;;5240111;28;20486;-75
2023/03/06 04:12:04;;;;;;;12.30;9.20;;;;;;;;;;5239943;28;20043;-74
2023/03/06 04:14:35;;;;;;;13.17;9.77;;;;;;;;;;5239773;28;20026;-73
2023/03/06 04:17:06;;;;;;;13.67;10.13;;;;;;;;;;5240573;28;20358;-74
2023/03/06 04:19:37;;;;;;;12.23;9.00;;;;;;;;;;5239226;28;20053;-74
2023/03/06 04:22:08;;;;;;;13.13;9.63;;;;;;;;;;5240440;28;20028;-74
2023/03/06 04:24:40;;;;;;;12.07;9.13;;;;;;;;;;5239907;28;20063;-74
2023/03/06 04:27:11;;;;;;;13.57;10.70;;;;;;;;;;5240139;28;20105;-74
2023/03/06 04:29:42;;;;;;;13.83;10.30;;;;;;;;;;5239879;28;20033;-75
2023/03/06 04:32:14;;;;;;;15.43;11.17;;;;;;;;;;5240404;28;20064;-74
2023/03/06 04:34:45;;;;;;;16.00;11.97;;;;;;;;;;5238882;28;20041;-74
2023/03/06 04:37:21;;;;;;;17.57;11.97;;;;;;;;;;5240074;28;20029;-74
2023/03/06 04:39:52;;;;;;;15.63;11.67;;;;;;;;;;5239510;28;20009;-74
2023/03/06 04:42:23;;;;;;;17.03;12.60;;;;;;;;;;5239602;28;20025;-74
2023/03/06 04:44:54;;;;;;;16.37;12.53;;;;;;;;;;5239603;28;20108;-74
2023/03/06 04:47:25;;;;;;;17.63;13.30;;;;;;;;;;5238602;28;20028;-74
2023/03/06 04:49:56;;;;;;;20.16;14.30;;;;;;;;;;5239805;28;20353;-74
2023/03/06 04:52:28;;;;;;;19.57;12.67;;;;;;;;;;5240813;28;20396;-74
2023/03/06 04:54:59;;;;;;;18.83;13.77;;;;;;;;;;5243255;28;20073;-74
2023/03/06 04:57:30;;;;;;;19.90;13.97;;;;;;;;;;5243526;28;20017;-74
2023/03/06 05:00:03;;;;;;;19.47;14.23;;;;;;;;;;5243879;28;20083;-74
2023/03/06 05:02:35;;;;;;;19.90;13.37;;;;;;;;;;5257809;28;20068;-74
2023/03/06 05:05:06;;;;;;;19.93;14.37;;;;;;;;;;5243955;28;20041;-74
2023/03/06 05:07:37;;;;;;;22.43;14.93;;;;;;;;;;5243192;28;20076;-74
2023/03/06 05:10:12;;;;;;;19.67;14.17;;;;;;;;;;5242969;28;20044;-75
2023/03/06 05:12:43;;;;;;;20.73;14.80;;;;;;;;;;5243156;28;20763;-75
2023/03/06 05:15:15;;;;;;;21.00;15.00;;;;;;;;;;5243157;28;20122;-75
2023/03/06 05:17:46;;;;;;;25.17;16.57;;;;;;;;;;5243031;28;20105;-75
2023/03/06 05:20:17;;;;;;;21.87;15.67;;;;;;;;;;5243681;28;20469;-75
2023/03/06 05:22:49;;;;;;;21.50;15.20;;;;;;;;;;5242125;28;20067;-74
2023/03/06 05:25:20;;;;;;;20.67;14.40;;;;;;;;;;5243229;28;20393;-75
2023/03/06 05:27:51;;;;;;;19.83;14.33;;;;;;;;;;5243419;28;20376;-74
2023/03/06 05:30:23;;;;;;;20.57;15.03;;;;;;;;;;5242340;28;20029;-75
2023/03/06 05:32:54;;;;;;;23.07;15.27;;;;;;;;;;5242957;28;20013;-76
2023/03/06 05:35:25;;;;;;;19.72;15.32;;;;;;;;;;5242573;28;20504;-76
2023/03/06 05:37:56;;;;;;;22.33;15.53;;;;;;;;;;5242553;28;20464;-75
2023/03/06 05:40:27;;;;;;;23.00;16.63;;;;;;;;;;5242871;28;20014;-75
2023/03/06 05:42:59;;;;;;;22.17;16.50;;;;;;;;;;5243250;28;20092;-75
2023/03/06 05:45:30;;;;;;;20.87;15.40;;;;;;;;;;5241781;28;20025;-76
2023/03/06 05:48:01;;;;;;;23.27;16.80;;;;;;;;;;5242894;28;20025;-76
2023/03/06 05:50:32;;;;;;;22.70;15.90;;;;;;;;;;5241214;28;20053;-76
2023/03/06 05:53:03;;;;;;;23.07;15.70;;;;;;;;;;5243206;28;20511;-75
2023/03/06 05:55:35;;;;;;;21.47;15.23;;;;;;;;;;5242436;28;20026;-75
2023/03/06 05:58:06;;;;;;;23.27;16.27;;;;;;;;;;5242089;28;20025;-75
2023/03/06 06:00:37;;;;;;;24.63;16.77;;;;;;;;;;5242032;28;20071;-75
2023/03/06 06:03:08;;;;;;;23.53;16.03;;;;;;;;;;5242515;28;20018;-75
2023/03/06 06:05:39;;;;;;;24.77;16.93;;;;;;;;;;5240673;28;20021;-75
2023/03/06 06:08:11;;;;;;;23.53;15.60;;;;;;;;;;5242564;28;20461;-75
2023/03/06 06:10:42;;;;;;;30.03;18.13;;;;;;;;;;5241900;28;20041;-75
2023/03/06 06:13:13;;;;;;;24.20;16.77;;;;;;;;;;5241626;28;20064;-75
2023/03/06 06:15:44;;;;;;;24.93;17.13;;;;;;;;;;5241663;28;20074;-75
2023/03/06 06:18:15;;;;;;;22.13;15.90;;;;;;;;;;5242290;28;20452;-75
2023/03/06 06:20:47;;;;;;;23.63;16.60;;;;;;;;;;5240810;28;20052;-75
2023/03/06 06:23:18;;;;;;;24.90;16.40;;;;;;;;;;5241959;28;20047;-74
2023/03/06 06:25:50;;;;;;;22.87;16.50;;;;;;;;;;5240720;28;20048;-74
2023/03/06 06:28:21;;;;;;;25.67;17.73;;;;;;;;;;5241961;28;20147;-75
2023/03/06 06:30:52;;;;;;;26.60;18.10;;;;;;;;;;5241769;28;20121;-75
2023/03/06 06:33:24;;;;;;;24.57;17.40;;;;;;;;;;5241153;28;20306;-75
2023/03/06 06:35:55;;;;;;;24.53;17.60;;;;;;;;;;5241939;28;20032;-75
2023/03/06 06:38:26;;;;;;;26.30;18.37;;;;;;;;;;5241490;28;20014;-76
2023/03/06 06:40:57;;;;;;;24.03;17.73;;;;;;;;;;5241276;28;20029;-74
2023/03/06 06:43:29;;;;;;;24.40;16.97;;;;;;;;;;5241430;28;20052;-75
2023/03/06 06:46:00;;;;;;;23.77;17.30;;;;;;;;;;5241662;28;20021;-76
2023/03/06 06:48:31;;;;;;;26.43;18.17;;;;;;;;;;5240026;28;20017;-76
2023/03/06 06:51:03;;;;;;;27.23;19.10;;;;;;;;;;5241447;28;20404;-75
2023/03/06 06:53:34;;;;;;;27.90;18.90;;;;;;;;;;5240452;28;20013;-75
2023/03/06 06:56:05;;;;;;;25.30;18.30;;;;;;;;;;5241547;28;20492;-75
2023/03/06 06:58:36;;;;;;;26.07;17.67;;;;;;;;;;5240874;28;20017;-75
2023/03/06 07:01:09;;;;;;;25.50;17.50;;;;;;;;;;5240768;28;20033;-74
2023/03/06 07:03:40;;;;;;;24.10;17.33;;;;;;;;;;5240832;28;20476;-75
2023/03/06 07:06:11;;;;;;;30.00;20.23;;;;;;;;;;5241330;28;20029;-75
2023/03/06 07:08:43;;;;;;;27.10;18.97;;;;;;;;;;5239989;28;20777;-76
2023/03/06 07:11:16;;;;;;;27.87;18.03;;;;;;;;;;5240892;28;20518;-75
2023/03/06 07:13:47;;;;;;;24.50;17.77;;;;;;;;;;5240565;28;20022;-75
2023/03/06 07:16:18;;;;;;;29.57;19.70;;;;;;;;;;5239687;28;20499;-74
2023/03/06 07:18:49;;;;;;;27.13;19.33;;;;;;;;;;5240743;28;20021;-75
2023/03/06 07:21:21;;;;;;;27.23;19.50;;;;;;;;;;5240691;28;20041;-75
2023/03/06 07:23:53;;;;;;;28.73;20.13;;;;;;;;;;5239704;28;20032;-74
2023/03/06 07:26:24;;;;;;;32.10;21.70;;;;;;;;;;5240652;28;20341;-75
2023/03/06 07:28:56;;;;;;;28.33;20.00;;;;;;;;;;5240300;28;20104;-74
2023/03/06 07:31:27;;;;;;;32.50;22.33;;;;;;;;;;5240278;28;20037;-75
2023/03/06 07:33:58;;;;;;;33.27;22.00;;;;;;;;;;5240767;28;20014;-75
2023/03/06 07:36:30;;;;;;;34.23;22.17;;;;;;;;;;5239472;28;20021;-75
2023/03/06 07:39:01;;;;;;;29.10;21.40;;;;;;;;;;5240831;28;20013;-74
2023/03/06 07:41:32;;;;;;;32.03;21.60;;;;;;;;;;5240132;28;20018;-75
2023/03/06 07:44:03;;;;;;;31.97;22.63;;;;;;;;;;5239901;28;20021;-74
2023/03/06 07:46:35;;;;;;;30.38;20.23;;;;;;;;;;5240191;28;20013;-75
2023/03/06 07:49:06;;;;;;;28.60;20.83;;;;;;;;;;5240461;28;20029;-74
2023/03/06 07:51:37;;;;;;;32.25;21.13;;;;;;;;;;5239088;28;20049;-74
2023/03/06 07:54:08;;;;;;;34.63;22.83;;;;;;;;;;5240652;28;20045;-75
2023/03/06 07:56:39;;;;;;;30.02;21.52;;;;;;;;;;5239966;28;20029;-74
2023/03/06 07:59:11;;;;;;;29.42;21.98;;;;;;;;;;5239594;28;20022;-74
2023/03/06 08:01:42;;;;;;;28.50;20.52;;;;;;;;;;5240150;28;20482;-74
2023/03/06 08:04:13;;;;;;;29.38;21.17;;;;;;;;;;5239899;28;20083;-74
2023/03/06 08:06:44;;;;;;;29.55;20.25;;;;;;;;;;5239750;28;20075;-75
2023/03/06 08:09:15;;;;;;;29.20;20.50;;;;;;;;;;5240378;28;20014;-75
2023/03/06 08:11:46;;;;;;;29.80;20.30;;;;;;;;;;5238966;28;20116;-75
2023/03/06 08:14:18;;;;;;;29.90;20.67;;;;;;;;;;5240536;28;20025;-75
2023/03/06 08:16:50;;;;;;;29.15;20.77;;;;;;;;;;5239682;28;20036;-75
2023/03/06 08:19:21;;;;;;;27.73;19.58;;;;;;;;;;5239301;28;20013;-75
2023/03/06 08:21:52;;;;;;;28.30;20.05;;;;;;;;;;5240007;28;20033;-75
2023/03/06 08:24:23;;;;;;;28.88;20.25;;;;;;;;;;5239956;28;20491;-75
2023/03/06 08:26:54;;;;;;;27.95;19.45;;;;;;;;;;5240060;28;20028;-74
2023/03/06 08:29:26;;;;;;;25.52;18.73;;;;;;;;;;5243883;28;20025;-75
2023/03/06 08:31:57;;;;;;;28.17;18.85;;;;;;;;;;5244049;28;20100;-74
2023/03/06 08:34:28;;;;;;;24.38;17.85;;;;;;;;;;5243450;28;20041;-74
2023/03/06 08:36:59;;;;;;;27.92;18.85;;;;;;;;;;5244330;28;20061;-74
2023/03/06 08:39:30;;;;;;;25.10;18.38;;;;;;;;;;5243142;28;20452;-74
2023/03/06 08:42:02;;;;;;;25.40;18.85;;;;;;;;;;5244213;28;20100;-74
2023/03/06 08:44:33;;;;;;;24.00;17.95;;;;;;;;;;5243815;28;20468;-75
2023/03/06 08:47:04;;;;;;;23.67;17.38;;;;;;;;;;5243160;28;20079;-74
2023/03/06 08:49:38;;;;;;;22.27;16.60;;;;;;;;;;5243510;28;20032;-74
2023/03/06 08:52:10;;;;;;;23.17;17.15;;;;;;;;;;5243857;28;20499;-74
2023/03/06 08:54:41;;;;;;;23.00;17.13;;;;;;;;;;5242686;28;20022;-75
2023/03/06 08:57:12;;;;;;;22.20;16.08;;;;;;;;;;5243922;28;20115;-74
2023/03/06 08:59:43;;;;;;;23.17;16.23;;;;;;;;;;5243198;28;20044;-74
2023/03/06 09:02:14;;;;;;;19.70;15.00;;;;;;;;;;5243291;28;20091;-74
2023/03/06 09:04:45;;;;;;;20.17;15.25;;;;;;;;;;5243283;28;20025;-75
2023/03/06 09:07:17;;;;;;;20.60;15.20;;;;;;;;;;5242746;28;20056;-75
2023/03/06 09:09:48;;;;;;;20.90;15.45;;;;;;;;;;5242856;28;20025;-74
2023/03/06 09:12:19;;;;;;;18.70;13.98;;;;;;;;;;5243262;28;20017;-75
2023/03/06 09:14:50;;;;;;;21.77;15.38;;;;;;;;;;5242528;28;20171;-74
2023/03/06 09:17:21;;;;;;;19.55;15.18;;;;;;;;;;5243114;28;20022;-74
2023/03/06 09:19:53;;;;;;;18.98;14.75;;;;;;;;;;5243245;28;20377;-74
2023/03/06 09:22:24;;;;;;;21.42;14.70;;;;;;;;;;5242056;28;20018;-76
2023/03/06 09:24:55;;;;;;;18.15;14.63;;;;;;;;;;5243460;28;20025;-75
2023/03/06 09:27:27;;;;;;;16.85;13.35;;;;;;;;;;5242685;28;20017;-75
2023/03/06 09:29:58;;;;;;;17.65;14.23;;;;;;;;;;5242308;28;20392;-75
2023/03/06 09:32:29;;;;;;;24.40;15.25;;;;;;;;;;5242537;28;20449;-75
2023/03/06 09:35:00;;;;;;;18.15;14.20;;;;;;;;;;5243230;28;20032;-75
2023/03/06 09:37:31;;;;;;;17.73;13.80;;;;;;;;;;5241550;28;20018;-75
2023/03/06 09:40:05;;;;;;;16.73;12.93;;;;;;;;;;5242150;28;20510;-75
2023/03/06 09:42:36;;;;;;;16.25;13.10;;;;;;;;;;5241870;28;20542;-75
2023/03/06 09:45:09;;;;;;;17.90;13.18;;;;;;;;;;5242882;28;20045;-75
2023/03/06 09:47:43;;;;;;;16.90;13.80;;;;;;;;;;5242272;28;20025;-74
2023/03/06 09:50:20;;;;;;;15.30;12.73;;;;;;;;;;5242135;28;20091;-75
2023/03/06 09:52:57;;;;;;;17.13;13.00;;;;;;;;;;5242677;28;20037;-75
2023/03/06 09:55:34;;;;;;;15.07;12.18;;;;;;;;;;5242066;28;20025;-75
2023/03/06 09:58:11;;;;;;;14.73;12.63;;;;;;;;;;5241837;28;20018;-75
2023/03/06 10:00:42;;;;;;;16.63;11.70;;;;;;;;;;5242245;28;20469;-74
2023/03/06 10:03:16;;;;;;;14.18;11.58;;;;;;;;;;5242821;28;20021;-75
2023/03/06 10:05:51;;;;;;;13.60;10.32;;;;;;;;;;5241073;28;20021;-75
2023/03/06 10:08:38;;;;;;;12.88;10.50;;;;;;;;;;5242130;28;20079;-75
2023/03/06 10:11:11;;;;;;;11.95;10.48;;;;;;;;;;5241884;28;20029;-75
2023/03/06 10:13:45;;;;;;;12.95;10.20;;;;;;;;;;5241762;28;20071;-75
2023/03/06 10:16:30;;;;;;;13.68;10.48;;;;;;;;;;5242461;28;20354;-75
2023/03/06 10:19:02;;;;;;;13.45;10.93;;;;;;;;;;5241462;28;20048;-74
2023/03/06 10:21:47;;;;;;;14.00;10.32;;;;;;;;;;5241731;28;20108;-74
2023/03/06 10:24:21;;;;;;;15.10;12.20;;;;;;;;;;5242063;28;20030;-75
2023/03/06 10:27:07;;;;;;;16.77;12.25;;;;;;;;;;5241159;28;20388;-75
2023/03/06 10:29:45;;;;;;;14.60;11.45;;;;;;;;;;5241433;28;20040;-75
2023/03/06 10:32:39;;;;;;;12.70;10.45;;;;;;;;;;5241412;28;20045;-75
2023/03/06 10:35:14;;;;;;;12.88;9.98;;;;;;;;;;5236323;28;20508;-74
2023/03/06 10:37:45;;;;;;;14.15;11.32;;;;;;;;;;5241024;28;20029;-75
2023/03/06 10:40:19;;;;;;;16.73;11.85;;;;;;;;;;5241201;28;20021;-75
2023/03/06 10:42:50;;;;;;;13.30;10.68;;;;;;;;;;5241672;28;20026;-75
2023/03/06 10:45:22;;;;;;;13.43;10.20;;;;;;;;;;5241571;28;20104;-75
2023/03/06 10:48:08;;;;;;;15.35;11.00;;;;;;;;;;5240757;28;20025;-75
2023/03/06 10:50:39;;;;;;;11.70;10.38;;;;;;;;;;5240962;28;20495;-75
2023/03/06 10:53:19;;;;;;;12.02;9.93;;;;;;;;;;5241216;28;20075;-75
2023/03/06 10:55:53;;;;;;;11.05;9.48;;;;;;;;;;5241317;28;20025;-74
2023/03/06 10:58:27;;;;;;;11.82;9.32;;;;;;;;;;5240892;28;20415;-75
2023/03/06 11:01:05;;;;;;;11.32;9.40;;;;;;;;;;5240769;28;20113;-75
2023/03/06 11:03:36;;;;;;;10.10;8.45;;;;;;;;;;5240939;28;20047;-74
2023/03/06 11:06:09;;;;;;;11.32;9.10;;;;;;;;;;5241702;28;20030;-75
2023/03/06 11:08:42;;;;;;;10.45;8.73;;;;;;;;;;5240061;28;20435;-75
2023/03/06 11:11:14;;;;;;;9.40;7.97;;;;;;;;;;5241291;28;20037;-74
2023/03/06 11:13:54;;;;;;;12.00;8.73;;;;;;;;;;5239824;28;20101;-75
2023/03/06 11:16:29;;;;;;;12.65;8.75;;;;;;;;;;5240688;28;20022;-75
2023/03/06 11:19:02;;;;;;;9.30;8.30;;;;;;;;;;5241254;28;20350;-75
2023/03/06 11:21:34;;;;;;;10.48;8.50;;;;;;;;;;5239442;28;20128;-76
2023/03/06 11:24:17;;;;;;;10.10;8.10;;;;;;;;;;5241236;28;20037;-75
2023/03/06 11:27:00;;;;;;;8.55;7.22;;;;;;;;;;5240447;28;20021;-75
2023/03/06 11:29:31;;;;;;;7.35;6.63;;;;;;;;;;5239434;28;20394;-74
2023/03/06 11:32:02;;;;;;;8.60;6.60;;;;;;;;;;5241103;28;20049;-74
2023/03/06 11:34:39;;;;;;;7.22;6.46;;;;;;;;;;5240455;28;20022;-74
2023/03/06 11:37:22;;;;;;;9.98;7.30;;;;;;;;;;5240197;28;20052;-75
2023/03/06 11:39:58;;;;;;;8.50;7.30;;;;;;;;;;5240365;28;20392;-75
2023/03/06 11:42:36;;;;;;;11.05;7.63;;;;;;;;;;5239548;28;20013;-74
2023/03/06 11:45:12;;;;;;;8.50;7.22;;;;;;;;;;5240801;28;20026;-73
2023/03/06 11:47:47;;;;;;;8.45;6.93;;;;;;;;;;5240106;28;20208;-74
2023/03/06 11:50:21;;;;;;;8.38;6.30;;;;;;;;;;5239447;28;20427;-75
2023/03/06 11:53:00;;;;;;;6.43;5.68;;;;;;;;;;5240648;28;20550;-74
2023/03/06 11:55:45;;;;;;;7.97;4.95;;;;;;;;;;5240075;28;20021;-74
2023/03/06 11:58:16;;;;;;;5.45;4.18;;;;;;;;;;5239882;28;20022;-74
2023/03/06 12:00:56;;;;;;;5.20;3.22;;;;;;;;;;5239870;28;20028;-74
2023/03/06 12:03:27;;;;;;;;;;;;;;;;;;5239213;28;20018;-75
2023/03/06 12:06:09;;;;;;;4.57;2.47;;;;;;;;;;5240691;28;19928;-74
2023/03/06 12:08:55;;;;;;;4.35;2.47;;;;;;;;;;5239801;28;20110;-73
2023/03/06 12:11:31;;;;;;;3.88;2.95;;;;;;;;;;5238911;28;20039;-74
2023/03/06 12:14:14;;;;;;;4.28;3.20;;;;;;;;;;5240695;28;20021;-74
2023/03/06 12:16:48;;;;;;;7.95;4.70;;;;;;;;;;5239573;28;20029;-74
2023/03/06 12:19:27;;;;;;;6.70;5.03;;;;;;;;;;5239085;28;20080;-75
2023/03/06 12:22:08;;;;;;;7.45;5.05;;;;;;;;;;5240231;28;20021;-74
2023/03/06 12:25:04;;;;;;;7.30;5.93;;;;;;;;;;5239053;28;20436;-74
2023/03/06 12:27:41;;;;;;;8.85;5.90;;;;;;;;;;5239883;28;20013;-74
2023/03/06 12:30:24;;;;;;;6.75;5.47;;;;;;;;;;5240055;28;20373;-74
2023/03/06 12:33:04;;;;;;;8.65;6.07;;;;;;;;;;5239494;28;20429;-74
2023/03/06 12:35:53;;;;;;;6.70;5.85;;;;;;;;;;5239595;28;20029;-74
2023/03/06 12:38:27;;;;;;;7.22;6.28;;;;;;;;;;5238640;28;20030;-74
2023/03/06 12:40:58;;;;;;;6.75;6.05;;;;;;;;;;5240143;28;20079;-74
2023/03/06 12:43:42;;;;;;;9.66;7.12;;;;;;;;;;5239565;28;20025;-74
2023/03/06 12:46:23;;;;;;;7.70;6.63;;;;;;;;;;5239267;28;20021;-74
2023/03/06 12:49:02;;;;;;;8.15;6.55;;;;;;;;;;5239802;28;20073;-74
2023/03/06 12:51:33;;;;;;;9.82;7.57;;;;;;;;;;5239525;28;20437;-74
2023/03/06 12:54:04;;;;;;;12.10;8.20;;;;;;;;;;5239138;28;20024;-74
2023/03/06 12:56:37;;;;;;;7.07;6.38;;;;;;;;;;5239408;28;20542;-74
2023/03/06 12:59:28;;;;;;;4.97;3.97;;;;;;;;;;5240020;28;20085;-74
2023/03/06 13:02:03;;;;;;;4.22;2.83;;;;;;;;;;5239763;28;20100;-74
2023/03/06 13:04:37;;;;;;;2.65;1.83;;;;;;;;;;5239381;28;20029;-73
2023/03/06 13:07:26;;;;;;;2.92;1.88;;;;;;;;;;5239020;28;20384;-74
2023/03/06 13:10:20;;;;;;;4.05;1.58;;;;;;;;;;5240087;28;20453;-74
2023/03/06 13:12:59;;;;;;;3.65;1.80;;;;;;;;;;5239816;28;20366;-74
2023/03/06 13:15:35;;;;;;;3.53;2.05;;;;;;;;;;5241624;28;20013;-73
2023/03/06 13:18:22;;;;;;;3.88;2.13;;;;;;;;;;5243502;28;20381;-71
2023/03/06 13:20:53;;;;;;;3.45;2.72;;;;;;;;;;5242472;28;20071;-71
2023/03/06 13:23:45;;;;;;;2.78;1.85;;;;;;;;;;5242807;28;20025;-72
2023/03/06 13:26:25;;;;;;;4.13;1.95;;;;;;;;;;5243055;28;20030;-71
2023/03/06 13:28:57;;;;;;;2.75;1.90;;;;;;;;;;5242302;28;20057;-71
2023/03/06 13:31:28;;;;;;;5.80;3.10;;;;;;;;;;5242538;28;20076;-73
2023/03/06 13:34:25;;;;;;;4.40;3.65;;;;;;;;;;5243300;28;20530;-73
2023/03/06 13:37:25;;;;;;;5.93;5.10;;;;;;;;;;5243093;28;20433;-74
2023/03/06 13:40:02;;;;;;;6.40;5.03;;;;;;;;;;5238095;28;20025;-73
2023/03/06 13:42:35;;;;;;;6.38;4.68;;;;;;;;;;5241751;28;20037;-74
2023/03/06 13:45:18;;;;;;;6.20;5.25;;;;;;;;;;5242997;28;20040;-73
2023/03/06 13:47:49;;;;;;;7.47;4.88;;;;;;;;;;5242493;28;20358;-74
2023/03/06 13:50:23;;;;;;;6.15;4.93;;;;;;;;;;5241631;28;20040;-73
2023/03/06 13:53:13;;;;;;;5.85;4.82;;;;;;;;;;5242537;28;20112;-73
2023/03/06 13:55:56;;;;;;;5.65;4.47;;;;;;;;;;5241350;28;20095;-74
2023/03/06 13:58:37;;;;;;;6.45;5.32;;;;;;;;;;5242242;28;20033;-74
2023/03/06 14:01:11;;;;;;;6.15;5.10;;;;;;;;;;5242815;28;20072;-73
2023/03/06 14:03:46;;;;;;;6.80;4.93;;;;;;;;;;5241238;28;20029;-74
2023/03/06 14:06:33;;;;;;;7.95;6.00;;;;;;;;;;5242684;28;20108;-75
2023/03/06 14:09:05;;;;;;;7.57;5.93;;;;;;;;;;5242751;28;20021;-74
2023/03/06 14:11:38;;;;;;;6.57;5.65;;;;;;;;;;5237191;28;20024;-73
2023/03/06 14:14:10;;;;;;;7.13;5.88;;;;;;;;;;5239672;28;20018;-74
2023/03/06 14:16:47;;;;;;;8.30;6.65;;;;;;;;;;5240722;28;20460;-74
2023/03/06 14:19:18;;;;;;;8.25;6.63;;;;;;;;;;5241812;28;20014;-73
2023/03/06 14:21:54;;;;;;;9.77;6.50;;;;;;;;;;5241279;28;20017;-73
2023/03/06 14:24:37;;;;;;;8.32;6.95;;;;;;;;;;5239787;28;20028;-74
2023/03/06 14:27:15;;;;;;;8.05;6.20;;;;;;;;;;5222394;28;20018;-74
2023/03/06 14:29:47;;;;;;;7.75;6.82;;;;;;;;;;5220458;28;20022;-75
2023/03/06 14:32:20;;;;;;;9.68;7.30;;;;;;;;;;5220399;28;20025;-75
2023/03/06 14:34:51;;;;;;;9.00;7.22;;;;;;;;;;5221156;28;20368;-74
2023/03/06 14:37:23;;;;;;;10.10;7.75;;;;;;;;;;5220462;28;20034;-75
2023/03/06 14:39:55;;;;;;;11.55;8.98;;;;;;;;;;5219601;28;20024;-75
2023/03/06 14:42:27;;;;;;;13.38;9.13;;;;;;;;;;5220452;28;20473;-75
2023/03/06 14:45:08;;;;;;;14.52;10.02;;;;;;;;;;5220027;28;20018;-74
2023/03/06 14:47:39;;;;;;;13.50;9.85;;;;;;;;;;5220539;28;20021;-74
2023/03/06 14:50:20;;;;;;;16.17;12.07;;;;;;;;;;5221131;28;20026;-75
2023/03/06 14:52:56;;;;;;;17.55;12.32;;;;;;;;;;5219626;28;20030;-74
2023/03/06 14:55:28;;;;;;;13.35;10.65;;;;;;;;;;5219596;28;20128;-74
2023/03/06 14:58:21;;;;;;;11.00;9.80;;;;;;;;;;5219336;28;20041;-74
2023/03/06 15:00:53;;;;;;;13.18;10.90;;;;;;;;;;5219918;28;20040;-74
2023/03/06 15:03:34;;;;;;;14.95;11.48;;;;;;;;;;5220452;28;20006;-74
2023/03/06 15:06:07;;;;;;;13.48;11.15;;;;;;;;;;5219861;28;20023;-74
2023/03/06 15:08:38;;;;;;;14.73;12.00;;;;;;;;;;5220023;28;20040;-73